Minneapolis, Minnesota
Traffic Map
Current Weather Conditions
Minneapolis, Minnesota
Broken Clouds
Broken Clouds
57°
Feels Like: 57°
Wind Chill: 57° Ceiling: 22000
Heat Index: 57° Visibility: 10mi
Dew Point: 51° Wind: 8mph
Humidity: 81% Direction: 130° (SE)
Pressure: 29.93in Gusts: 0mph
Raw Report DataKMSP 191153Z 13007KT 10SM FEW110 SCT170 BKN220 14/11 A2993 RMK AO2 SLP132 T01390106 10156 20139 58008
Traffic Incident Summary
Active as of:
Severity:
Category:
InformationThere was an issue retrieving the traffic information for this location. Please try a different location or try again shortly.
Advertisements
Track Severe Weather on mobile